sensor_id;sensor_type;location;lat;lon;timestamp;P1;durP1;ratioP1;P2;durP2;ratioP2
33696;SDS011;20031;43.416;23.232;2023-02-22T00:00:37;6.90;;;3.10;;
33696;SDS011;20031;43.416;23.232;2023-02-22T00:03:24;5.88;;;3.05;;
33696;SDS011;20031;43.416;23.232;2023-02-22T00:05:52;5.82;;;2.97;;
33696;SDS011;20031;43.416;23.232;2023-02-22T00:08:21;8.23;;;3.00;;
33696;SDS011;20031;43.416;23.232;2023-02-22T00:10:47;4.50;;;2.67;;
33696;SDS011;20031;43.416;23.232;2023-02-22T00:13:16;6.88;;;2.58;;
33696;SDS011;20031;43.416;23.232;2023-02-22T00:15:43;4.22;;;2.70;;
33696;SDS011;20031;43.416;23.232;2023-02-22T00:18:12;5.18;;;3.10;;
33696;SDS011;20031;43.416;23.232;2023-02-22T00:20:40;4.68;;;2.55;;
33696;SDS011;20031;43.416;23.232;2023-02-22T00:23:06;5.38;;;2.80;;
33696;SDS011;20031;43.416;23.232;2023-02-22T00:25:36;9.43;;;3.17;;
33696;SDS011;20031;43.416;23.232;2023-02-22T00:28:02;6.40;;;2.75;;
33696;SDS011;20031;43.416;23.232;2023-02-22T00:30:29;5.53;;;2.95;;
33696;SDS011;20031;43.416;23.232;2023-02-22T00:32:57;5.78;;;3.15;;
33696;SDS011;20031;43.416;23.232;2023-02-22T00:35:25;5.50;;;2.92;;
33696;SDS011;20031;43.416;23.232;2023-02-22T00:37:54;6.20;;;3.17;;
33696;SDS011;20031;43.416;23.232;2023-02-22T00:40:22;4.88;;;2.60;;
33696;SDS011;20031;43.416;23.232;2023-02-22T00:42:50;5.53;;;2.47;;
33696;SDS011;20031;43.416;23.232;2023-02-22T00:45:16;4.07;;;2.50;;
33696;SDS011;20031;43.416;23.232;2023-02-22T00:47:44;5.28;;;2.35;;
33696;SDS011;20031;43.416;23.232;2023-02-22T00:50:10;4.20;;;2.35;;
33696;SDS011;20031;43.416;23.232;2023-02-22T00:52:36;10.15;;;2.40;;
33696;SDS011;20031;43.416;23.232;2023-02-22T00:55:03;3.63;;;2.40;;
33696;SDS011;20031;43.416;23.232;2023-02-22T00:57:30;5.35;;;2.47;;
33696;SDS011;20031;43.416;23.232;2023-02-22T00:59:55;6.78;;;2.45;;
33696;SDS011;20031;43.416;23.232;2023-02-22T01:02:21;10.77;;;2.78;;
33696;SDS011;20031;43.416;23.232;2023-02-22T01:04:46;3.03;;;2.13;;
33696;SDS011;20031;43.416;23.232;2023-02-22T01:07:12;5.78;;;2.20;;
33696;SDS011;20031;43.416;23.232;2023-02-22T01:09:38;5.80;;;2.67;;
33696;SDS011;20031;43.416;23.232;2023-02-22T01:12:05;4.68;;;2.28;;
33696;SDS011;20031;43.416;23.232;2023-02-22T01:14:32;5.78;;;2.60;;
33696;SDS011;20031;43.416;23.232;2023-02-22T01:16:57;10.70;;;2.65;;
33696;SDS011;20031;43.416;23.232;2023-02-22T01:19:23;5.53;;;2.38;;
33696;SDS011;20031;43.416;23.232;2023-02-22T01:21:49;3.90;;;2.20;;
33696;SDS011;20031;43.416;23.232;2023-02-22T01:24:15;6.70;;;2.30;;
33696;SDS011;20031;43.416;23.232;2023-02-22T01:26:42;5.60;;;2.30;;
33696;SDS011;20031;43.416;23.232;2023-02-22T01:29:12;5.00;;;1.90;;
33696;SDS011;20031;43.416;23.232;2023-02-22T01:31:43;5.25;;;2.60;;
33696;SDS011;20031;43.416;23.232;2023-02-22T01:34:17;4.68;;;2.40;;
33696;SDS011;20031;43.416;23.232;2023-02-22T01:36:42;9.50;;;2.42;;
33696;SDS011;20031;43.416;23.232;2023-02-22T01:39:08;8.48;;;2.60;;
33696;SDS011;20031;43.416;23.232;2023-02-22T01:41:34;5.82;;;2.58;;
33696;SDS011;20031;43.416;23.232;2023-02-22T01:44:35;3.58;;;2.10;;
33696;SDS011;20031;43.416;23.232;2023-02-22T01:46:53;4.20;;;2.30;;
33696;SDS011;20031;43.416;23.232;2023-02-22T01:49:19;4.03;;;2.05;;
33696;SDS011;20031;43.416;23.232;2023-02-22T01:51:47;4.32;;;2.50;;
33696;SDS011;20031;43.416;23.232;2023-02-22T01:56:48;4.82;;;2.28;;
33696;SDS011;20031;43.416;23.232;2023-02-22T01:59:31;2.92;;;2.00;;
33696;SDS011;20031;43.416;23.232;2023-02-22T02:01:58;3.17;;;2.00;;
33696;SDS011;20031;43.416;23.232;2023-02-22T02:04:24;4.07;;;1.90;;
33696;SDS011;20031;43.416;23.232;2023-02-22T02:06:52;4.38;;;2.40;;
33696;SDS011;20031;43.416;23.232;2023-02-22T02:09:34;4.25;;;1.98;;
33696;SDS011;20031;43.416;23.232;2023-02-22T02:12:04;6.00;;;2.10;;
33696;SDS011;20031;43.416;23.232;2023-02-22T02:14:32;8.40;;;1.95;;
33696;SDS011;20031;43.416;23.232;2023-02-22T02:16:58;4.43;;;2.20;;
33696;SDS011;20031;43.416;23.232;2023-02-22T02:33:05;7.10;;;2.20;;
33696;SDS011;20031;43.416;23.232;2023-02-22T02:39:04;4.13;;;2.10;;
33696;SDS011;20031;43.416;23.232;2023-02-22T02:41:44;3.90;;;2.10;;
33696;SDS011;20031;43.416;23.232;2023-02-22T02:44:16;4.22;;;1.92;;
33696;SDS011;20031;43.416;23.232;2023-02-22T02:46:50;3.33;;;1.90;;
33696;SDS011;20031;43.416;23.232;2023-02-22T02:49:21;4.88;;;1.90;;
33696;SDS011;20031;43.416;23.232;2023-02-22T02:51:52;5.68;;;2.17;;
33696;SDS011;20031;43.416;23.232;2023-02-22T02:54:21;12.93;;;2.00;;
33696;SDS011;20031;43.416;23.232;2023-02-22T02:56:48;2.92;;;2.03;;
33696;SDS011;20031;43.416;23.232;2023-02-22T02:59:28;3.70;;;2.20;;
33696;SDS011;20031;43.416;23.232;2023-02-22T03:18:40;3.47;;;1.98;;
33696;SDS011;20031;43.416;23.232;2023-02-22T03:23:44;6.85;;;2.20;;
33696;SDS011;20031;43.416;23.232;2023-02-22T03:26:16;5.25;;;2.28;;
33696;SDS011;20031;43.416;23.232;2023-02-22T03:28:48;9.38;;;2.60;;
33696;SDS011;20031;43.416;23.232;2023-02-22T03:31:22;4.35;;;2.47;;
33696;SDS011;20031;43.416;23.232;2023-02-22T03:33:52;4.55;;;2.10;;
33696;SDS011;20031;43.416;23.232;2023-02-22T03:36:24;6.22;;;2.60;;
33696;SDS011;20031;43.416;23.232;2023-02-22T03:38:54;5.82;;;2.50;;
33696;SDS011;20031;43.416;23.232;2023-02-22T03:41:24;7.13;;;2.30;;
33696;SDS011;20031;43.416;23.232;2023-02-22T03:43:53;6.93;;;2.97;;
33696;SDS011;20031;43.416;23.232;2023-02-22T03:46:28;6.55;;;2.70;;
33696;SDS011;20031;43.416;23.232;2023-02-22T03:48:59;10.55;;;2.97;;
33696;SDS011;20031;43.416;23.232;2023-02-22T03:51:32;7.53;;;3.78;;
33696;SDS011;20031;43.416;23.232;2023-02-22T03:53:58;13.55;;;4.80;;
33696;SDS011;20031;43.416;23.232;2023-02-22T03:56:28;12.20;;;4.95;;
33696;SDS011;20031;43.416;23.232;2023-02-22T03:59:01;10.77;;;3.90;;
33696;SDS011;20031;43.416;23.232;2023-02-22T04:01:33;13.80;;;3.53;;
33696;SDS011;20031;43.416;23.232;2023-02-22T04:03:59;7.10;;;2.70;;
33696;SDS011;20031;43.416;23.232;2023-02-22T04:06:25;6.63;;;2.90;;
33696;SDS011;20031;43.416;23.232;2023-02-22T04:08:51;7.85;;;2.60;;
33696;SDS011;20031;43.416;23.232;2023-02-22T04:11:16;9.20;;;2.38;;
33696;SDS011;20031;43.416;23.232;2023-02-22T04:13:42;8.18;;;2.30;;
33696;SDS011;20031;43.416;23.232;2023-02-22T04:16:07;11.15;;;2.63;;
33696;SDS011;20031;43.416;23.232;2023-02-22T04:18:33;7.95;;;2.53;;
33696;SDS011;20031;43.416;23.232;2023-02-22T04:20:58;5.57;;;2.67;;
33696;SDS011;20031;43.416;23.232;2023-02-22T04:23:23;10.18;;;3.28;;
33696;SDS011;20031;43.416;23.232;2023-02-22T04:25:50;4.85;;;2.72;;
33696;SDS011;20031;43.416;23.232;2023-02-22T04:28:17;8.02;;;2.30;;
33696;SDS011;20031;43.416;23.232;2023-02-22T04:30:43;5.43;;;1.80;;
33696;SDS011;20031;43.416;23.232;2023-02-22T04:33:09;4.47;;;1.90;;
33696;SDS011;20031;43.416;23.232;2023-02-22T04:35:35;17.45;;;2.38;;
33696;SDS011;20031;43.416;23.232;2023-02-22T04:38:00;4.72;;;2.42;;
33696;SDS011;20031;43.416;23.232;2023-02-22T04:40:26;8.57;;;3.10;;
33696;SDS011;20031;43.416;23.232;2023-02-22T04:42:52;8.38;;;3.10;;
33696;SDS011;20031;43.416;23.232;2023-02-22T04:45:17;10.02;;;3.63;;
33696;SDS011;20031;43.416;23.232;2023-02-22T04:47:43;11.95;;;3.90;;
33696;SDS011;20031;43.416;23.232;2023-02-22T04:50:10;9.23;;;3.80;;
33696;SDS011;20031;43.416;23.232;2023-02-22T04:52:36;6.47;;;2.75;;
33696;SDS011;20031;43.416;23.232;2023-02-22T04:55:02;6.03;;;2.22;;
33696;SDS011;20031;43.416;23.232;2023-02-22T04:57:28;3.75;;;1.92;;
33696;SDS011;20031;43.416;23.232;2023-02-22T04:59:54;9.90;;;1.92;;
33696;SDS011;20031;43.416;23.232;2023-02-22T05:02:20;5.68;;;2.63;;
33696;SDS011;20031;43.416;23.232;2023-02-22T05:04:45;12.98;;;3.33;;
33696;SDS011;20031;43.416;23.232;2023-02-22T05:07:11;13.07;;;5.70;;
33696;SDS011;20031;43.416;23.232;2023-02-22T05:09:36;9.70;;;3.35;;
33696;SDS011;20031;43.416;23.232;2023-02-22T05:12:02;6.30;;;3.30;;
33696;SDS011;20031;43.416;23.232;2023-02-22T05:14:27;8.55;;;3.08;;
33696;SDS011;20031;43.416;23.232;2023-02-22T05:16:54;7.07;;;3.30;;
33696;SDS011;20031;43.416;23.232;2023-02-22T05:19:20;9.05;;;2.53;;
33696;SDS011;20031;43.416;23.232;2023-02-22T05:21:46;6.13;;;2.80;;
33696;SDS011;20031;43.416;23.232;2023-02-22T05:24:11;10.43;;;2.88;;
33696;SDS011;20031;43.416;23.232;2023-02-22T05:26:37;9.20;;;2.55;;
33696;SDS011;20031;43.416;23.232;2023-02-22T05:29:02;7.63;;;2.70;;
33696;SDS011;20031;43.416;23.232;2023-02-22T05:31:27;10.27;;;2.80;;
33696;SDS011;20031;43.416;23.232;2023-02-22T05:33:53;18.55;;;3.08;;
33696;SDS011;20031;43.416;23.232;2023-02-22T05:36:18;30.02;;;9.82;;
33696;SDS011;20031;43.416;23.232;2023-02-22T05:38:44;6.78;;;3.00;;
33696;SDS011;20031;43.416;23.232;2023-02-22T05:41:10;11.77;;;3.15;;
33696;SDS011;20031;43.416;23.232;2023-02-22T05:43:36;11.88;;;3.22;;
33696;SDS011;20031;43.416;23.232;2023-02-22T05:46:02;17.92;;;3.50;;
33696;SDS011;20031;43.416;23.232;2023-02-22T05:48:28;13.57;;;3.42;;
33696;SDS011;20031;43.416;23.232;2023-02-22T05:50:55;17.52;;;4.10;;
33696;SDS011;20031;43.416;23.232;2023-02-22T05:53:20;24.33;;;4.88;;
33696;SDS011;20031;43.416;23.232;2023-02-22T05:55:47;19.55;;;5.68;;
33696;SDS011;20031;43.416;23.232;2023-02-22T05:58:13;11.20;;;5.15;;
33696;SDS011;20031;43.416;23.232;2023-02-22T06:00:39;15.48;;;4.93;;
33696;SDS011;20031;43.416;23.232;2023-02-22T06:03:05;22.42;;;4.30;;
33696;SDS011;20031;43.416;23.232;2023-02-22T06:05:32;24.80;;;4.28;;
33696;SDS011;20031;43.416;23.232;2023-02-22T06:07:58;29.45;;;8.25;;
33696;SDS011;20031;43.416;23.232;2023-02-22T06:10:24;75.20;;;18.20;;
33696;SDS011;20031;43.416;23.232;2023-02-22T06:12:50;95.45;;;20.58;;
33696;SDS011;20031;43.416;23.232;2023-02-22T06:15:17;42.38;;;6.13;;
33696;SDS011;20031;43.416;23.232;2023-02-22T06:17:43;29.77;;;4.22;;
33696;SDS011;20031;43.416;23.232;2023-02-22T06:20:10;39.65;;;8.50;;
33696;SDS011;20031;43.416;23.232;2023-02-22T06:22:37;50.83;;;26.13;;
33696;SDS011;20031;43.416;23.232;2023-02-22T06:25:05;63.38;;;27.38;;
33696;SDS011;20031;43.416;23.232;2023-02-22T06:27:32;24.75;;;11.35;;
33696;SDS011;20031;43.416;23.232;2023-02-22T06:29:58;56.33;;;10.63;;
33696;SDS011;20031;43.416;23.232;2023-02-22T06:32:24;38.42;;;5.18;;
33696;SDS011;20031;43.416;23.232;2023-02-22T06:34:50;24.60;;;4.88;;
33696;SDS011;20031;43.416;23.232;2023-02-22T06:37:15;24.95;;;4.07;;
33696;SDS011;20031;43.416;23.232;2023-02-22T06:39:41;20.30;;;5.93;;
33696;SDS011;20031;43.416;23.232;2023-02-22T06:42:06;41.28;;;7.55;;
33696;SDS011;20031;43.416;23.232;2023-02-22T06:44:32;11.52;;;3.20;;
33696;SDS011;20031;43.416;23.232;2023-02-22T06:46:57;9.02;;;3.80;;
33696;SDS011;20031;43.416;23.232;2023-02-22T06:49:24;12.80;;;2.80;;
33696;SDS011;20031;43.416;23.232;2023-02-22T06:51:50;10.35;;;3.90;;
33696;SDS011;20031;43.416;23.232;2023-02-22T06:54:16;10.88;;;2.90;;
33696;SDS011;20031;43.416;23.232;2023-02-22T06:56:42;11.68;;;3.25;;
33696;SDS011;20031;43.416;23.232;2023-02-22T06:59:07;9.73;;;3.13;;
33696;SDS011;20031;43.416;23.232;2023-02-22T07:01:33;11.98;;;3.53;;
33696;SDS011;20031;43.416;23.232;2023-02-22T07:03:58;78.30;;;6.13;;
33696;SDS011;20031;43.416;23.232;2023-02-22T07:06:23;17.77;;;5.97;;
33696;SDS011;20031;43.416;23.232;2023-02-22T07:08:49;18.40;;;5.43;;
33696;SDS011;20031;43.416;23.232;2023-02-22T07:11:15;33.60;;;6.63;;
33696;SDS011;20031;43.416;23.232;2023-02-22T07:13:41;27.20;;;4.55;;
33696;SDS011;20031;43.416;23.232;2023-02-22T07:16:06;47.17;;;4.57;;
33696;SDS011;20031;43.416;23.232;2023-02-22T07:18:32;35.95;;;4.72;;
33696;SDS011;20031;43.416;23.232;2023-02-22T07:20:57;28.10;;;3.80;;
33696;SDS011;20031;43.416;23.232;2023-02-22T07:23:23;14.80;;;3.35;;
33696;SDS011;20031;43.416;23.232;2023-02-22T07:25:48;11.00;;;3.63;;
33696;SDS011;20031;43.416;23.232;2023-02-22T07:28:14;21.20;;;3.80;;
33696;SDS011;20031;43.416;23.232;2023-02-22T07:30:40;25.35;;;4.22;;
33696;SDS011;20031;43.416;23.232;2023-02-22T07:33:06;25.15;;;4.53;;
33696;SDS011;20031;43.416;23.232;2023-02-22T07:35:44;115.93;;;7.30;;
33696;SDS011;20031;43.416;23.232;2023-02-22T07:38:11;25.20;;;3.92;;
33696;SDS011;20031;43.416;23.232;2023-02-22T07:40:38;25.33;;;4.32;;
33696;SDS011;20031;43.416;23.232;2023-02-22T07:43:18;24.17;;;3.78;;
33696;SDS011;20031;43.416;23.232;2023-02-22T07:45:46;20.17;;;4.32;;
33696;SDS011;20031;43.416;23.232;2023-02-22T07:48:13;56.17;;;6.00;;
33696;SDS011;20031;43.416;23.232;2023-02-22T07:50:39;23.33;;;4.80;;
33696;SDS011;20031;43.416;23.232;2023-02-22T07:53:07;22.48;;;4.50;;
33696;SDS011;20031;43.416;23.232;2023-02-22T07:55:36;35.42;;;4.28;;
33696;SDS011;20031;43.416;23.232;2023-02-22T07:58:03;15.05;;;3.75;;
33696;SDS011;20031;43.416;23.232;2023-02-22T08:00:31;9.57;;;3.80;;
33696;SDS011;20031;43.416;23.232;2023-02-22T08:03:00;17.67;;;3.72;;
33696;SDS011;20031;43.416;23.232;2023-02-22T08:05:28;17.67;;;3.78;;
33696;SDS011;20031;43.416;23.232;2023-02-22T08:07:54;25.70;;;4.38;;
33696;SDS011;20031;43.416;23.232;2023-02-22T08:10:21;24.92;;;4.35;;
33696;SDS011;20031;43.416;23.232;2023-02-22T08:12:48;26.27;;;4.28;;
33696;SDS011;20031;43.416;23.232;2023-02-22T08:15:15;138.32;;;8.57;;
33696;SDS011;20031;43.416;23.232;2023-02-22T08:17:43;24.88;;;4.32;;
33696;SDS011;20031;43.416;23.232;2023-02-22T08:20:09;24.27;;;4.70;;
33696;SDS011;20031;43.416;23.232;2023-02-22T08:22:35;87.80;;;9.30;;
33696;SDS011;20031;43.416;23.232;2023-02-22T08:25:00;50.08;;;6.90;;
33696;SDS011;20031;43.416;23.232;2023-02-22T08:27:26;26.48;;;5.20;;
33696;SDS011;20031;43.416;23.232;2023-02-22T08:29:53;75.72;;;6.55;;
33696;SDS011;20031;43.416;23.232;2023-02-22T08:32:20;34.03;;;5.80;;
33696;SDS011;20031;43.416;23.232;2023-02-22T08:34:46;31.27;;;5.45;;
33696;SDS011;20031;43.416;23.232;2023-02-22T08:37:12;22.92;;;4.55;;
33696;SDS011;20031;43.416;23.232;2023-02-22T08:39:39;10.52;;;3.35;;
33696;SDS011;20031;43.416;23.232;2023-02-22T08:42:04;12.43;;;3.25;;
33696;SDS011;20031;43.416;23.232;2023-02-22T08:44:30;4.85;;;2.42;;
33696;SDS011;20031;43.416;23.232;2023-02-22T08:46:55;15.40;;;8.05;;
33696;SDS011;20031;43.416;23.232;2023-02-22T08:49:21;11.13;;;5.18;;
33696;SDS011;20031;43.416;23.232;2023-02-22T08:51:46;8.82;;;3.03;;
33696;SDS011;20031;43.416;23.232;2023-02-22T08:54:12;6.97;;;3.80;;
33696;SDS011;20031;43.416;23.232;2023-02-22T08:56:37;38.90;;;13.82;;
33696;SDS011;20031;43.416;23.232;2023-02-22T08:59:03;13.65;;;4.40;;
33696;SDS011;20031;43.416;23.232;2023-02-22T09:01:28;21.77;;;7.75;;
33696;SDS011;20031;43.416;23.232;2023-02-22T09:03:54;27.90;;;13.65;;
33696;SDS011;20031;43.416;23.232;2023-02-22T09:06:20;9.90;;;4.25;;
33696;SDS011;20031;43.416;23.232;2023-02-22T09:08:46;8.20;;;4.15;;
33696;SDS011;20031;43.416;23.232;2023-02-22T09:11:11;13.70;;;7.38;;
33696;SDS011;20031;43.416;23.232;2023-02-22T09:13:37;7.05;;;2.90;;
33696;SDS011;20031;43.416;23.232;2023-02-22T09:16:02;19.83;;;3.03;;
33696;SDS011;20031;43.416;23.232;2023-02-22T09:18:28;7.82;;;3.13;;
33696;SDS011;20031;43.416;23.232;2023-02-22T09:20:54;7.88;;;2.95;;
33696;SDS011;20031;43.416;23.232;2023-02-22T09:23:19;6.18;;;3.08;;
33696;SDS011;20031;43.416;23.232;2023-02-22T09:25:48;11.25;;;3.10;;
33696;SDS011;20031;43.416;23.232;2023-02-22T09:28:14;12.57;;;2.80;;
33696;SDS011;20031;43.416;23.232;2023-02-22T09:30:40;8.60;;;2.53;;
33696;SDS011;20031;43.416;23.232;2023-02-22T09:33:08;17.58;;;3.25;;
33696;SDS011;20031;43.416;23.232;2023-02-22T09:35:36;12.73;;;3.33;;
33696;SDS011;20031;43.416;23.232;2023-02-22T09:38:06;12.30;;;3.42;;
33696;SDS011;20031;43.416;23.232;2023-02-22T09:40:33;7.95;;;2.38;;
33696;SDS011;20031;43.416;23.232;2023-02-22T09:51:24;9.38;;;2.90;;
33696;SDS011;20031;43.416;23.232;2023-02-22T09:54:18;7.10;;;2.20;;
33696;SDS011;20031;43.416;23.232;2023-02-22T09:56:48;11.38;;;2.80;;
33696;SDS011;20031;43.416;23.232;2023-02-22T09:59:19;9.10;;;2.58;;
33696;SDS011;20031;43.416;23.232;2023-02-22T10:01:53;12.20;;;3.05;;
33696;SDS011;20031;43.416;23.232;2023-02-22T10:04:41;7.65;;;2.35;;
33696;SDS011;20031;43.416;23.232;2023-02-22T10:07:23;12.10;;;3.15;;
33696;SDS011;20031;43.416;23.232;2023-02-22T10:09:50;10.25;;;3.15;;
33696;SDS011;20031;43.416;23.232;2023-02-22T10:25:43;6.75;;;2.50;;
33696;SDS011;20031;43.416;23.232;2023-02-22T10:31:04;15.18;;;2.40;;
33696;SDS011;20031;43.416;23.232;2023-02-22T10:33:36;5.18;;;2.40;;
33696;SDS011;20031;43.416;23.232;2023-02-22T10:36:09;5.03;;;2.30;;
33696;SDS011;20031;43.416;23.232;2023-02-22T10:38:44;8.35;;;2.20;;
33696;SDS011;20031;43.416;23.232;2023-02-22T10:41:20;8.95;;;3.30;;
33696;SDS011;20031;43.416;23.232;2023-02-22T10:43:51;6.93;;;2.47;;
33696;SDS011;20031;43.416;23.232;2023-02-22T10:46:17;10.30;;;2.88;;
33696;SDS011;20031;43.416;23.232;2023-02-22T10:48:46;5.95;;;2.47;;
33696;SDS011;20031;43.416;23.232;2023-02-22T10:51:15;9.82;;;2.53;;
33696;SDS011;20031;43.416;23.232;2023-02-22T10:53:41;6.47;;;2.33;;
33696;SDS011;20031;43.416;23.232;2023-02-22T10:56:19;6.78;;;2.35;;
33696;SDS011;20031;43.416;23.232;2023-02-22T10:58:58;10.05;;;2.78;;
33696;SDS011;20031;43.416;23.232;2023-02-22T11:03:57;6.03;;;2.35;;
33696;SDS011;20031;43.416;23.232;2023-02-22T11:06:23;4.07;;;1.90;;
33696;SDS011;20031;43.416;23.232;2023-02-22T11:08:49;5.03;;;2.00;;
33696;SDS011;20031;43.416;23.232;2023-02-22T11:11:20;7.40;;;2.80;;
33696;SDS011;20031;43.416;23.232;2023-02-22T11:13:53;3.35;;;1.70;;
33696;SDS011;20031;43.416;23.232;2023-02-22T11:16:24;7.90;;;2.20;;
33696;SDS011;20031;43.416;23.232;2023-02-22T11:18:59;7.85;;;2.22;;
33696;SDS011;20031;43.416;23.232;2023-02-22T11:21:48;8.02;;;2.40;;
33696;SDS011;20031;43.416;23.232;2023-02-22T11:24:17;6.18;;;2.83;;
33696;SDS011;20031;43.416;23.232;2023-02-22T11:26:45;7.78;;;3.03;;
33696;SDS011;20031;43.416;23.232;2023-02-22T11:31:56;8.73;;;2.50;;
33696;SDS011;20031;43.416;23.232;2023-02-22T11:34:31;6.25;;;2.50;;
33696;SDS011;20031;43.416;23.232;2023-02-22T11:40:29;6.38;;;2.78;;
33696;SDS011;20031;43.416;23.232;2023-02-22T11:42:49;7.05;;;2.78;;
33696;SDS011;20031;43.416;23.232;2023-02-22T11:45:31;11.40;;;3.60;;
33696;SDS011;20031;43.416;23.232;2023-02-22T11:47:58;9.52;;;2.88;;
33696;SDS011;20031;43.416;23.232;2023-02-22T11:50:52;8.65;;;2.38;;
33696;SDS011;20031;43.416;23.232;2023-02-22T11:53:43;4.13;;;2.30;;
33696;SDS011;20031;43.416;23.232;2023-02-22T11:56:21;6.68;;;3.33;;
33696;SDS011;20031;43.416;23.232;2023-02-22T12:09:45;5.75;;;2.55;;
33696;SDS011;20031;43.416;23.232;2023-02-22T12:15:26;10.60;;;2.55;;
33696;SDS011;20031;43.416;23.232;2023-02-22T12:18:12;4.25;;;2.22;;
33696;SDS011;20031;43.416;23.232;2023-02-22T12:20:53;7.65;;;2.30;;
33696;SDS011;20031;43.416;23.232;2023-02-22T12:26:25;5.65;;;2.58;;
33696;SDS011;20031;43.416;23.232;2023-02-22T12:31:45;4.53;;;2.50;;
33696;SDS011;20031;43.416;23.232;2023-02-22T12:34:18;7.65;;;2.20;;
33696;SDS011;20031;43.416;23.232;2023-02-22T12:36:53;7.68;;;3.05;;
33696;SDS011;20031;43.416;23.232;2023-02-22T12:39:24;8.10;;;2.80;;
33696;SDS011;20031;43.416;23.232;2023-02-22T12:41:58;6.20;;;2.90;;
33696;SDS011;20031;43.416;23.232;2023-02-22T12:44:35;5.35;;;2.33;;
33696;SDS011;20031;43.416;23.232;2023-02-22T12:47:04;7.63;;;2.83;;
33696;SDS011;20031;43.416;23.232;2023-02-22T12:49:36;15.80;;;3.33;;
33696;SDS011;20031;43.416;23.232;2023-02-22T12:52:13;6.72;;;2.33;;
33696;SDS011;20031;43.416;23.232;2023-02-22T12:54:58;11.68;;;3.95;;
33696;SDS011;20031;43.416;23.232;2023-02-22T12:57:39;7.10;;;2.80;;
33696;SDS011;20031;43.416;23.232;2023-02-22T13:02:57;9.18;;;3.10;;
33696;SDS011;20031;43.416;23.232;2023-02-22T13:05:28;13.70;;;3.85;;
33696;SDS011;20031;43.416;23.232;2023-02-22T13:18:55;5.18;;;2.70;;
33696;SDS011;20031;43.416;23.232;2023-02-22T13:21:46;12.48;;;2.95;;
33696;SDS011;20031;43.416;23.232;2023-02-22T13:24:24;10.63;;;2.65;;
33696;SDS011;20031;43.416;23.232;2023-02-22T13:26:59;8.40;;;2.53;;
33696;SDS011;20031;43.416;23.232;2023-02-22T13:29:38;6.40;;;2.72;;
33696;SDS011;20031;43.416;23.232;2023-02-22T13:40:42;7.57;;;2.97;;
33696;SDS011;20031;43.416;23.232;2023-02-22T13:52:24;7.65;;;2.55;;
33696;SDS011;20031;43.416;23.232;2023-02-22T13:55:03;7.28;;;3.05;;
33696;SDS011;20031;43.416;23.232;2023-02-22T13:57:42;10.48;;;2.90;;
33696;SDS011;20031;43.416;23.232;2023-02-22T14:02:57;27.45;;;4.75;;
33696;SDS011;20031;43.416;23.232;2023-02-22T14:08:03;12.35;;;3.60;;
33696;SDS011;20031;43.416;23.232;2023-02-22T14:13:04;11.50;;;2.53;;
33696;SDS011;20031;43.416;23.232;2023-02-22T14:15:31;8.30;;;2.80;;
33696;SDS011;20031;43.416;23.232;2023-02-22T14:17:58;11.48;;;3.10;;
33696;SDS011;20031;43.416;23.232;2023-02-22T14:20:32;9.43;;;2.67;;
33696;SDS011;20031;43.416;23.232;2023-02-22T14:25:48;9.63;;;2.70;;
33696;SDS011;20031;43.416;23.232;2023-02-22T14:28:34;8.32;;;2.70;;
33696;SDS011;20031;43.416;23.232;2023-02-22T14:31:22;5.90;;;2.53;;
33696;SDS011;20031;43.416;23.232;2023-02-22T14:33:53;9.75;;;3.10;;
33696;SDS011;20031;43.416;23.232;2023-02-22T14:36:22;15.88;;;3.28;;
33696;SDS011;20031;43.416;23.232;2023-02-22T14:39:13;12.57;;;2.83;;
33696;SDS011;20031;43.416;23.232;2023-02-22T14:41:54;14.15;;;2.83;;
33696;SDS011;20031;43.416;23.232;2023-02-22T14:44:26;19.35;;;3.65;;
33696;SDS011;20031;43.416;23.232;2023-02-22T14:46:58;7.47;;;3.10;;
33696;SDS011;20031;43.416;23.232;2023-02-22T14:49:29;11.48;;;3.03;;
33696;SDS011;20031;43.416;23.232;2023-02-22T14:52:03;7.97;;;2.75;;
33696;SDS011;20031;43.416;23.232;2023-02-22T14:54:38;8.20;;;3.10;;
33696;SDS011;20031;43.416;23.232;2023-02-22T14:57:52;8.85;;;2.63;;
33696;SDS011;20031;43.416;23.232;2023-02-22T15:03:16;18.10;;;3.47;;
33696;SDS011;20031;43.416;23.232;2023-02-22T15:05:42;12.63;;;2.80;;
33696;SDS011;20031;43.416;23.232;2023-02-22T15:08:08;8.95;;;2.78;;
33696;SDS011;20031;43.416;23.232;2023-02-22T15:10:44;25.20;;;4.55;;
33696;SDS011;20031;43.416;23.232;2023-02-22T15:13:21;8.18;;;2.90;;
33696;SDS011;20031;43.416;23.232;2023-02-22T15:15:59;45.78;;;15.88;;
33696;SDS011;20031;43.416;23.232;2023-02-22T15:18:32;33.22;;;9.48;;
33696;SDS011;20031;43.416;23.232;2023-02-22T15:21:12;24.45;;;7.72;;
33696;SDS011;20031;43.416;23.232;2023-02-22T15:26:18;6.00;;;3.40;;
33696;SDS011;20031;43.416;23.232;2023-02-22T15:28:53;9.88;;;2.80;;
33696;SDS011;20031;43.416;23.232;2023-02-22T15:31:26;12.90;;;3.17;;
33696;SDS011;20031;43.416;23.232;2023-02-22T15:33:54;7.32;;;3.10;;
33696;SDS011;20031;43.416;23.232;2023-02-22T15:36:24;6.95;;;2.60;;
33696;SDS011;20031;43.416;23.232;2023-02-22T15:38:52;21.13;;;5.10;;
33696;SDS011;20031;43.416;23.232;2023-02-22T15:41:24;39.90;;;7.72;;
33696;SDS011;20031;43.416;23.232;2023-02-22T15:44:07;13.25;;;3.20;;
33696;SDS011;20031;43.416;23.232;2023-02-22T15:46:36;6.80;;;2.50;;
33696;SDS011;20031;43.416;23.232;2023-02-22T15:51:39;8.00;;;3.38;;
33696;SDS011;20031;43.416;23.232;2023-02-22T15:54:06;12.50;;;3.85;;
33696;SDS011;20031;43.416;23.232;2023-02-22T15:56:39;18.05;;;3.72;;
33696;SDS011;20031;43.416;23.232;2023-02-22T15:59:12;18.67;;;4.60;;
33696;SDS011;20031;43.416;23.232;2023-02-22T16:01:42;14.35;;;4.10;;
33696;SDS011;20031;43.416;23.232;2023-02-22T16:04:17;16.20;;;4.90;;
33696;SDS011;20031;43.416;23.232;2023-02-22T16:06:45;11.98;;;3.72;;
33696;SDS011;20031;43.416;23.232;2023-02-22T16:09:22;10.38;;;3.13;;
33696;SDS011;20031;43.416;23.232;2023-02-22T16:11:50;14.13;;;3.83;;
33696;SDS011;20031;43.416;23.232;2023-02-22T16:17:22;16.05;;;4.70;;
33696;SDS011;20031;43.416;23.232;2023-02-22T16:19:54;17.58;;;4.25;;
33696;SDS011;20031;43.416;23.232;2023-02-22T16:25:11;27.13;;;7.00;;
33696;SDS011;20031;43.416;23.232;2023-02-22T16:27:42;16.25;;;4.22;;
33696;SDS011;20031;43.416;23.232;2023-02-22T16:32:46;18.55;;;4.15;;
33696;SDS011;20031;43.416;23.232;2023-02-22T16:35:12;22.67;;;3.80;;
33696;SDS011;20031;43.416;23.232;2023-02-22T16:37:49;16.60;;;4.00;;
33696;SDS011;20031;43.416;23.232;2023-02-22T16:40:35;11.80;;;4.10;;
33696;SDS011;20031;43.416;23.232;2023-02-22T16:43:13;14.00;;;3.85;;
33696;SDS011;20031;43.416;23.232;2023-02-22T16:45:41;12.63;;;4.05;;
33696;SDS011;20031;43.416;23.232;2023-02-22T16:48:13;10.18;;;3.85;;
33696;SDS011;20031;43.416;23.232;2023-02-22T16:50:42;12.40;;;6.10;;
33696;SDS011;20031;43.416;23.232;2023-02-22T16:53:08;24.33;;;11.82;;
33696;SDS011;20031;43.416;23.232;2023-02-22T16:55:34;47.72;;;20.77;;
33696;SDS011;20031;43.416;23.232;2023-02-22T16:58:02;82.32;;;33.05;;
33696;SDS011;20031;43.416;23.232;2023-02-22T17:00:28;201.75;;;74.20;;
33696;SDS011;20031;43.416;23.232;2023-02-22T17:03:02;228.70;;;90.00;;
33696;SDS011;20031;43.416;23.232;2023-02-22T17:05:30;239.70;;;91.93;;
33696;SDS011;20031;43.416;23.232;2023-02-22T17:07:56;121.60;;;45.28;;
33696;SDS011;20031;43.416;23.232;2023-02-22T17:10:21;67.25;;;15.75;;
33696;SDS011;20031;43.416;23.232;2023-02-22T17:12:47;45.15;;;16.05;;